Contralmirante Cordero, Argentina
Current Conditions -  °F | °C
As of 3:00 AM on Friday 24 Oct 2014 (Local Time) from SAZN Reporting Station
Clear Clear  
Wind Chill: 59°   Ceiling: Unl
Heat Index: 59°   Visibility: 6mi
Dew Point: 39°   Wind: 7mph
Humidity: 48%   Direction: 110°ESE
Pressure: 30.12"   Gusts: NA
Location:  38.73°S, 68.17°W
Report Text: SAZN 240600Z 11006KT CAVOK 15/04 Q1020
Loading
Personal Weather Stations






























Interactive Weather Map
Tropical Storm Tracking
New forecast layout! Learn more

10-Day Weather Forecast

Advertisements
Track Severe Weather on mobile